NCAR-RAP Real-Time Weather Data

Output produced by METARs form (26 May 2022  07:12 UTC)
found at http://weather.rap.ucar.edu/surface/
 
WBSB 260700Z 26010KT 9999 SCT015 FEW016CB BKN300 32/27 Q1006 RESHRA WS ALL RWY TEMPO 7000 -SHRA
WBSB 260630Z 25009KT 9999 SCT015 FEW016CB BKN300 32/27 Q1007 RESHRA TEMPO 7000 -SHRA
WBSB 260600Z 31007KT 9999 -SHRA SCT015 FEW016CB BKN300 30/27 Q1007 TEMPO 7000 -SHRA
WBSB 260530Z 28008KT 8000 -SHRA SCT015 FEW016CB BKN300 30/27 Q1008 TEMPO 7000 -SHRA
WBSB 260500Z 22007KT 9999 SCT015 FEW016CB BKN300 33/26 Q1009 NOSIG
WBSB 260430Z 17007KT 9999 SCT015 FEW016CB BKN300 32/26 Q1009 NOSIG
WBSB 260400Z 18006KT 9999 SCT015 FEW016CB BKN300 32/26 Q1009 NOSIG
WBSB 260330Z 21007KT 9999 SCT015 FEW016CB BKN300 32/27 Q1010 NOSIG
WBSB 260300Z 17005KT 9999 FEW015 FEW016CB BKN300 32/27 Q1010 NOSIG
WBSB 260230Z 16005KT 9999 FEW015 FEW016CB BKN300 31/27 Q1010 NOSIG
WBSB 260200Z 19007KT 9999 FEW015 FEW016CB BKN300 30/26 Q1011 NOSIG
WBSB 260130Z 18005KT 9999 FEW015 SCT140 BKN300 30/26 Q1011 NOSIG
WBSB 260100Z 15003KT 9999 FEW014 BKN140 28/26 Q1011 NOSIG
WBSB 260030Z 18004KT 9999 FEW014 FEW015CB BKN140 28/26 Q1011 NOSIG
WBSB 260000Z 20005KT 9999 FEW014 FEW015CB SCT140 BKN300 27/26 Q1010 NOSIG
WBSB 252330Z 20005KT 9999 FEW014 BKN140 26/26 Q1010 NOSIG
WBSB 252300Z 18003KT 9999 FEW014 BKN140 26/25 Q1010 NOSIG
WBSB 252230Z 20002KT 9999 FEW014 BKN140 25/25 Q1009 NOSIG
WBSB 252200Z 18003KT 9999 FEW014 BKN140 25/25 Q1009 NOSIG
WBSB 252130Z 20004KT 9999 FEW014 BKN140 25/25 Q1009 NOSIG
WBSB 252100Z 22005KT 9999 FEW014 BKN140 25/25 Q1009 NOSIG
WBSB 252030Z 18001KT 9999 FEW014 BKN140 25/25 Q1008 NOSIG
WBSB 252000Z 23004KT 9999 FEW014 BKN140 26/25 Q1008 NOSIG
WBSB 251930Z 16003KT 9999 FEW014 BKN140 26/25 Q1009 NOSIG